createdAt,value
2022-10-15T00:00:03.903Z,971.04
2022-10-15T00:02:03.029Z,971.10
2022-10-15T00:03:03.070Z,971.04
2022-10-15T00:04:03.196Z,970.98
2022-10-15T00:05:03.753Z,971.13
2022-10-15T00:06:03.907Z,971.01
2022-10-15T00:07:03.877Z,971.01
2022-10-15T00:08:02.983Z,971.04
2022-10-15T00:09:03.164Z,971.15
2022-10-15T00:10:03.341Z,970.96
2022-10-15T00:11:08.442Z,970.90
2022-10-15T00:12:08.428Z,970.84
2022-10-15T00:14:03.556Z,970.81
2022-10-15T00:15:03.575Z,970.98
2022-10-15T00:16:08.623Z,971.07
2022-10-15T00:17:03.726Z,970.95
2022-10-15T00:18:03.739Z,971.01
2022-10-15T00:19:03.831Z,971.10
2022-10-15T00:20:08.887Z,971.04
2022-10-15T00:21:08.960Z,970.96
2022-10-15T00:22:03.058Z,971.01
2022-10-15T00:23:02.968Z,971.13
2022-10-15T00:24:03.188Z,971.01
2022-10-15T00:25:03.150Z,971.01
2022-10-15T00:26:03.215Z,971.10
2022-10-15T00:27:08.227Z,971.01
2022-10-15T00:28:03.239Z,970.87
2022-10-15T00:29:08.587Z,970.87
2022-10-15T00:30:03.362Z,971.04
2022-10-15T00:32:03.399Z,970.84
2022-10-15T00:33:03.375Z,970.84
2022-10-15T00:34:03.542Z,970.90
2022-10-15T00:35:03.572Z,970.87
2022-10-15T00:36:03.613Z,970.87
2022-10-15T00:37:03.709Z,970.81
2022-10-15T00:38:08.692Z,970.87
2022-10-15T00:39:03.867Z,970.81
2022-10-15T00:40:03.721Z,970.76
2022-10-15T00:42:03.864Z,970.73
2022-10-15T00:43:08.847Z,970.73
2022-10-15T00:44:03.839Z,970.90
2022-10-15T00:45:03.851Z,970.67
2022-10-15T00:46:08.888Z,970.82
2022-10-15T00:47:08.904Z,970.82
2022-10-15T00:48:03.908Z,970.73
2022-10-15T00:50:02.937Z,970.93
2022-10-15T00:51:02.940Z,970.88
2022-10-15T00:52:03.047Z,970.85
2022-10-15T00:53:02.980Z,970.94
2022-10-15T00:54:03.231Z,971.02
2022-10-15T00:55:03.246Z,971.05
2022-10-15T00:56:03.269Z,970.99
2022-10-15T00:57:03.350Z,970.99
2022-10-15T00:58:03.488Z,971.11
2022-10-15T00:59:08.595Z,970.97
2022-10-15T01:00:08.612Z,971.11
2022-10-15T01:01:03.697Z,971.08
2022-10-15T01:02:03.831Z,971.11
2022-10-15T01:03:03.903Z,971.05
2022-10-15T01:04:03.880Z,971.02
2022-10-15T01:05:03.889Z,970.82
2022-10-15T01:06:03.851Z,970.94
2022-10-15T01:07:09.025Z,970.88
2022-10-15T01:08:02.950Z,970.82
2022-10-15T01:09:08.860Z,970.74
2022-10-15T01:10:03.874Z,970.85
2022-10-15T01:11:03.875Z,970.74
2022-10-15T01:12:03.803Z,970.85
2022-10-15T01:13:03.907Z,970.74
2022-10-15T01:14:08.896Z,970.74
2022-10-15T01:15:03.823Z,970.74
2022-10-15T01:16:09.059Z,970.80
2022-10-15T01:17:03.927Z,970.80
2022-10-15T01:18:08.030Z,970.63
2022-10-15T01:19:03.164Z,970.74
2022-10-15T01:20:03.106Z,970.86
2022-10-15T01:21:03.442Z,970.86
2022-10-15T01:22:08.500Z,970.86
2022-10-15T01:23:08.556Z,970.71
2022-10-15T01:24:08.726Z,970.74
2022-10-15T01:25:03.741Z,970.83
2022-10-15T01:26:08.643Z,970.80
2022-10-15T01:27:03.648Z,970.83
2022-10-15T01:28:02.945Z,970.89
2022-10-15T01:29:03.729Z,970.74
2022-10-15T01:30:03.798Z,970.80
2022-10-15T01:31:08.886Z,970.83
2022-10-15T01:32:03.556Z,970.66
2022-10-15T01:33:03.529Z,970.63
2022-10-15T01:34:03.984Z,970.63
2022-10-15T01:35:03.615Z,970.69
2022-10-15T01:36:06.856Z,970.69
2022-10-15T01:37:08.670Z,970.57
2022-10-15T01:38:03.735Z,970.52
2022-10-15T01:39:03.732Z,970.63
2022-10-15T01:40:13.890Z,970.69
2022-10-15T01:41:02.935Z,970.57
2022-10-15T01:42:02.969Z,970.63
2022-10-15T01:43:08.184Z,970.52
2022-10-15T01:44:08.324Z,970.57
2022-10-15T01:45:03.168Z,970.43
2022-10-15T01:46:08.154Z,970.60
2022-10-15T01:47:03.154Z,970.55
2022-10-15T01:48:08.329Z,970.63
2022-10-15T01:49:03.531Z,970.63
2022-10-15T01:50:03.480Z,970.49
2022-10-15T01:51:03.470Z,970.43
2022-10-15T01:52:03.585Z,970.52
2022-10-15T01:53:03.521Z,970.72
2022-10-15T01:54:03.739Z,970.52
2022-10-15T01:55:03.642Z,970.46
2022-10-15T01:56:03.815Z,970.46
2022-10-15T01:57:03.759Z,970.27
2022-10-15T01:59:03.800Z,970.55
2022-10-15T02:00:03.805Z,970.36
2022-10-15T02:01:03.057Z,970.27
2022-10-15T02:02:02.961Z,970.49
2022-10-15T02:03:02.956Z,970.46
2022-10-15T02:04:03.114Z,970.43
2022-10-15T02:05:08.066Z,970.43
2022-10-15T02:06:03.027Z,970.46
2022-10-15T02:07:08.086Z,970.55
2022-10-15T02:08:08.045Z,970.33
2022-10-15T02:09:03.213Z,970.27
2022-10-15T02:10:03.143Z,970.36
2022-10-15T02:11:03.099Z,970.30
2022-10-15T02:12:03.121Z,970.16
2022-10-15T02:13:03.313Z,970.24
2022-10-15T02:14:03.547Z,970.24
2022-10-15T02:15:08.521Z,970.22
2022-10-15T02:16:13.569Z,970.13
2022-10-15T02:17:03.514Z,970.13
2022-10-15T02:18:03.606Z,970.13
2022-10-15T02:19:03.710Z,970.24
2022-10-15T02:20:03.902Z,970.16
2022-10-15T02:21:03.854Z,970.07
2022-10-15T02:22:03.900Z,970.13
2022-10-15T02:23:02.988Z,970.16
2022-10-15T02:24:03.399Z,970.13
2022-10-15T02:25:08.579Z,970.10
2022-10-15T02:26:03.650Z,970.07
2022-10-15T02:27:08.631Z,970.19
2022-10-15T02:28:03.188Z,970.16
2022-10-15T02:29:03.788Z,970.16
2022-10-15T02:30:08.414Z,970.02
2022-10-15T02:31:08.478Z,970.13
2022-10-15T02:32:03.851Z,969.99
2022-10-15T02:33:03.832Z,970.13
2022-10-15T02:34:03.025Z,970.13
2022-10-15T02:35:02.993Z,970.28
2022-10-15T02:36:08.106Z,970.07
2022-10-15T02:37:02.963Z,970.28
2022-10-15T02:38:03.170Z,970.25
2022-10-15T02:39:03.131Z,970.11
2022-10-15T02:40:03.211Z,970.22
2022-10-15T02:42:03.280Z,970.28
2022-10-15T02:43:03.290Z,970.25
2022-10-15T02:44:08.682Z,970.19
2022-10-15T02:45:08.605Z,970.05
2022-10-15T02:46:08.661Z,969.99
2022-10-15T02:47:03.597Z,970.11
2022-10-15T02:48:03.683Z,969.99
2022-10-15T02:49:03.934Z,969.96
2022-10-15T02:50:03.841Z,969.96
2022-10-15T02:51:07.951Z,969.96
2022-10-15T02:52:03.038Z,969.96
2022-10-15T02:53:03.061Z,970.02
2022-10-15T02:54:08.192Z,969.89
2022-10-15T02:55:03.193Z,969.86
2022-10-15T02:56:03.268Z,969.86
2022-10-15T02:57:08.433Z,969.96
2022-10-15T02:58:03.525Z,969.83
2022-10-15T02:59:03.738Z,969.66
2022-10-15T03:00:03.617Z,969.80
2022-10-15T03:01:03.849Z,969.71
2022-10-15T03:02:08.723Z,969.71
2022-10-15T03:03:04.015Z,969.63
2022-10-15T03:04:03.857Z,969.63
2022-10-15T03:05:02.905Z,969.68
2022-10-15T03:06:03.050Z,969.68
2022-10-15T03:07:03.139Z,969.80
2022-10-15T03:08:03.352Z,969.66
2022-10-15T03:09:03.513Z,969.71
2022-10-15T03:10:03.474Z,969.80
2022-10-15T03:11:03.439Z,969.80
2022-10-15T03:12:03.443Z,969.86
2022-10-15T03:13:03.458Z,969.77
2022-10-15T03:14:03.640Z,969.83
2022-10-15T03:15:03.762Z,969.66
2022-10-15T03:16:03.893Z,969.83
2022-10-15T03:17:02.974Z,969.80
2022-10-15T03:18:03.048Z,969.83
2022-10-15T03:19:03.285Z,969.80
2022-10-15T03:20:08.190Z,969.80
2022-10-15T03:21:03.115Z,969.77
2022-10-15T03:22:03.181Z,969.71
2022-10-15T03:23:08.282Z,969.71
2022-10-15T03:24:03.288Z,969.77
2022-10-15T03:25:03.435Z,969.77
2022-10-15T03:26:03.442Z,969.71
2022-10-15T03:27:08.586Z,969.80
2022-10-15T03:28:03.626Z,969.80
2022-10-15T03:29:03.764Z,969.71
2022-10-15T03:30:03.628Z,969.77
2022-10-15T03:31:03.654Z,969.68
2022-10-15T03:32:08.782Z,969.74
2022-10-15T03:33:03.832Z,969.89
2022-10-15T03:34:04.007Z,969.77
2022-10-15T03:35:02.956Z,969.60
2022-10-15T03:36:03.889Z,969.86
2022-10-15T03:37:08.951Z,969.68
2022-10-15T03:38:03.864Z,969.71
2022-10-15T03:39:08.969Z,969.71
2022-10-15T03:40:03.164Z,969.77
2022-10-15T03:41:03.192Z,969.83
2022-10-15T03:42:03.338Z,969.74
2022-10-15T03:43:08.320Z,969.80
2022-10-15T03:44:03.590Z,969.86
2022-10-15T03:45:03.756Z,969.77
2022-10-15T03:46:03.809Z,969.66
2022-10-15T03:47:03.914Z,969.71
2022-10-15T03:48:03.857Z,969.83
2022-10-15T03:49:03.056Z,969.74
2022-10-15T03:50:03.090Z,969.80
2022-10-15T03:51:08.105Z,969.80
2022-10-15T03:52:03.196Z,969.69
2022-10-15T03:53:03.385Z,969.80
2022-10-15T03:54:03.545Z,969.63
2022-10-15T03:55:03.524Z,969.83
2022-10-15T03:56:03.515Z,969.78
2022-10-15T03:57:03.588Z,969.83
2022-10-15T03:58:03.522Z,969.83
2022-10-15T03:59:08.718Z,969.72
2022-10-15T04:00:03.808Z,969.72
2022-10-15T04:01:03.959Z,969.83
2022-10-15T04:02:02.967Z,969.69
2022-10-15T04:03:02.980Z,969.69
2022-10-15T04:04:03.006Z,969.69
2022-10-15T04:05:03.010Z,969.78
2022-10-15T04:06:08.130Z,969.72
2022-10-15T04:07:03.194Z,969.75
2022-10-15T04:08:03.306Z,969.66
2022-10-15T04:09:03.502Z,969.69
2022-10-15T04:10:03.878Z,969.72
2022-10-15T04:11:02.990Z,969.61
2022-10-15T04:12:03.006Z,969.75
2022-10-15T04:13:02.932Z,969.75
2022-10-15T04:14:03.129Z,969.55
2022-10-15T04:15:03.117Z,969.78
2022-10-15T04:16:03.186Z,969.78
2022-10-15T04:17:08.201Z,969.86
2022-10-15T04:18:08.349Z,969.78
2022-10-15T04:19:07.420Z,969.84
2022-10-15T04:20:03.446Z,969.89
2022-10-15T04:21:03.402Z,969.78
2022-10-15T04:22:03.606Z,969.72
2022-10-15T04:24:03.811Z,969.72
2022-10-15T04:25:03.190Z,969.72
2022-10-15T04:26:03.270Z,969.78
2022-10-15T04:27:03.376Z,969.84
2022-10-15T04:28:03.254Z,969.89
2022-10-15T04:30:08.586Z,969.66
2022-10-15T04:31:08.478Z,969.78
2022-10-15T04:32:08.542Z,969.64
2022-10-15T04:33:03.478Z,969.61
2022-10-15T04:34:03.521Z,969.78
2022-10-15T04:35:03.594Z,969.86
2022-10-15T04:36:03.772Z,969.78
2022-10-15T04:37:08.680Z,969.78
2022-10-15T04:38:08.689Z,969.86
2022-10-15T04:39:03.923Z,969.84
2022-10-15T04:40:03.915Z,969.69
2022-10-15T04:41:03.861Z,969.75
2022-10-15T04:42:08.889Z,969.86
2022-10-15T04:43:03.883Z,969.66
2022-10-15T04:44:08.053Z,969.78
2022-10-15T04:45:08.097Z,969.61
2022-10-15T04:46:03.068Z,969.66
2022-10-15T04:47:03.040Z,969.78
2022-10-15T04:48:03.243Z,969.72
2022-10-15T04:49:03.334Z,969.75
2022-10-15T04:50:03.411Z,969.75
2022-10-15T04:51:08.473Z,969.66
2022-10-15T04:52:03.403Z,969.69
2022-10-15T04:53:08.227Z,969.60
2022-10-15T04:54:03.341Z,969.69
2022-10-15T04:55:03.294Z,969.60
2022-10-15T04:56:03.358Z,969.72
2022-10-15T04:57:08.288Z,969.75
2022-10-15T04:58:03.326Z,969.66
2022-10-15T04:59:08.375Z,969.60
2022-10-15T05:00:13.407Z,969.63
2022-10-15T05:01:03.408Z,969.63
2022-10-15T05:02:03.427Z,969.77
2022-10-15T05:03:03.448Z,969.69
2022-10-15T05:04:03.690Z,969.60
2022-10-15T05:05:13.738Z,969.74
2022-10-15T05:06:03.662Z,969.57
2022-10-15T05:07:03.606Z,969.66
2022-10-15T05:08:03.644Z,969.54
2022-10-15T05:09:03.757Z,969.63
2022-10-15T05:10:02.994Z,969.57
2022-10-15T05:11:02.931Z,969.66
2022-10-15T05:12:03.007Z,969.57
2022-10-15T05:13:02.942Z,969.54
2022-10-15T05:14:02.996Z,969.49
2022-10-15T05:15:08.120Z,969.66
2022-10-15T05:16:08.049Z,969.40
2022-10-15T05:17:08.130Z,969.43
2022-10-15T05:18:03.028Z,969.60
2022-10-15T05:19:03.006Z,969.37
2022-10-15T05:20:03.001Z,969.54
2022-10-15T05:21:08.186Z,969.45
2022-10-15T05:22:03.150Z,969.43
2022-10-15T05:23:03.087Z,969.45
2022-10-15T05:24:03.398Z,969.45
2022-10-15T05:25:03.432Z,969.43
2022-10-15T05:26:03.306Z,969.51
2022-10-15T05:27:03.702Z,969.57
2022-10-15T05:28:08.468Z,969.48
2022-10-15T05:29:03.301Z,969.60
2022-10-15T05:30:03.132Z,969.43
2022-10-15T05:31:03.188Z,969.63
2022-10-15T05:32:03.353Z,969.45
2022-10-15T05:33:08.300Z,969.60
2022-10-15T05:34:03.317Z,969.54
2022-10-15T05:35:03.443Z,969.54
2022-10-15T05:36:03.468Z,969.54
2022-10-15T05:37:03.459Z,969.66
2022-10-15T05:38:03.498Z,969.63
2022-10-15T05:39:03.791Z,969.60
2022-10-15T05:40:03.578Z,969.63
2022-10-15T05:41:03.639Z,969.66
2022-10-15T05:42:03.515Z,969.89
2022-10-15T05:43:08.502Z,969.66
2022-10-15T05:44:03.838Z,969.66
2022-10-15T05:45:03.759Z,969.71
2022-10-15T05:46:03.879Z,969.89
2022-10-15T05:47:07.994Z,969.80
2022-10-15T05:48:03.083Z,969.77
2022-10-15T05:49:03.162Z,969.77
2022-10-15T05:50:03.471Z,969.80
2022-10-15T05:51:08.145Z,969.86
2022-10-15T05:52:03.205Z,969.86
2022-10-15T05:53:03.138Z,969.77
2022-10-15T05:54:08.480Z,969.89
2022-10-15T05:55:08.629Z,969.89
2022-10-15T05:56:08.509Z,969.77
2022-10-15T05:57:03.465Z,969.83
2022-10-15T05:58:03.481Z,969.80
2022-10-15T05:59:08.791Z,969.89
2022-10-15T06:00:03.581Z,969.89
2022-10-15T06:01:03.751Z,969.80
2022-10-15T06:02:03.831Z,969.89
2022-10-15T06:03:08.777Z,969.83
2022-10-15T06:04:03.943Z,969.86
2022-10-15T06:05:03.085Z,969.80
2022-10-15T06:06:03.063Z,969.80
2022-10-15T06:07:03.225Z,969.74
2022-10-15T06:08:03.106Z,969.85
2022-10-15T06:09:03.219Z,969.80
2022-10-15T06:10:03.320Z,969.71
2022-10-15T06:11:09.625Z,969.77
2022-10-15T06:12:03.480Z,969.68
2022-10-15T06:13:08.410Z,969.74
2022-10-15T06:14:03.632Z,969.65
2022-10-15T06:15:03.560Z,969.62
2022-10-15T06:16:03.546Z,969.68
2022-10-15T06:17:03.534Z,969.68
2022-10-15T06:18:08.537Z,969.70
2022-10-15T06:19:03.718Z,969.62
2022-10-15T06:20:03.730Z,969.70
2022-10-15T06:21:03.688Z,969.62
2022-10-15T06:22:03.698Z,969.70
2022-10-15T06:23:03.739Z,969.67
2022-10-15T06:24:09.250Z,969.61
2022-10-15T06:25:08.058Z,969.70
2022-10-15T06:26:03.119Z,969.58
2022-10-15T06:27:08.067Z,969.72
2022-10-15T06:28:08.055Z,969.87
2022-10-15T06:29:08.176Z,969.67
2022-10-15T06:30:02.947Z,969.66
2022-10-15T06:31:03.914Z,969.78
2022-10-15T06:32:03.897Z,969.81
2022-10-15T06:33:03.999Z,969.92
2022-10-15T06:34:04.095Z,969.92
2022-10-15T06:35:02.988Z,969.97
2022-10-15T06:36:02.993Z,970.00
2022-10-15T06:37:02.962Z,970.02
2022-10-15T06:38:08.108Z,970.14
2022-10-15T06:39:03.245Z,969.99
2022-10-15T06:40:13.132Z,970.14
2022-10-15T06:41:03.177Z,970.17
2022-10-15T06:42:03.211Z,970.17
2022-10-15T06:43:03.323Z,970.19
2022-10-15T06:44:03.296Z,970.28
2022-10-15T06:45:03.301Z,970.28
2022-10-15T06:46:08.210Z,970.14
2022-10-15T06:48:03.348Z,970.34
2022-10-15T06:49:03.585Z,970.31
2022-10-15T06:50:03.578Z,970.34
2022-10-15T06:51:03.530Z,970.34
2022-10-15T06:52:04.245Z,970.31
2022-10-15T06:53:03.643Z,970.28
2022-10-15T06:54:03.744Z,970.39
2022-10-15T06:55:03.103Z,970.28
2022-10-15T06:56:08.184Z,970.37
2022-10-15T06:57:03.212Z,970.42
2022-10-15T06:59:03.699Z,970.36
2022-10-15T07:00:03.559Z,970.47
2022-10-15T07:01:03.666Z,970.39
2022-10-15T07:02:08.858Z,970.47
2022-10-15T07:03:03.762Z,970.50
2022-10-15T07:05:03.117Z,970.44
2022-10-15T07:06:03.205Z,970.47
2022-10-15T07:07:03.183Z,970.55
2022-10-15T07:08:03.056Z,970.61
2022-10-15T07:09:08.179Z,970.39
2022-10-15T07:10:03.248Z,970.55
2022-10-15T07:11:03.344Z,970.43
2022-10-15T07:12:03.417Z,970.43
2022-10-15T07:13:03.388Z,970.49
2022-10-15T07:14:03.601Z,970.43
2022-10-15T07:15:03.806Z,970.41
2022-10-15T07:16:03.686Z,970.49
2022-10-15T07:17:03.859Z,970.41
2022-10-15T07:18:08.925Z,970.48
2022-10-15T07:19:03.939Z,970.51
2022-10-15T07:20:07.960Z,970.42
2022-10-15T07:21:03.026Z,970.42
2022-10-15T07:22:08.005Z,970.42
2022-10-15T07:23:03.053Z,970.37
2022-10-15T07:24:03.028Z,970.53
2022-10-15T07:25:03.097Z,970.42
2022-10-15T07:26:03.059Z,970.61
2022-10-15T07:28:03.215Z,970.58
2022-10-15T07:29:03.452Z,970.58
2022-10-15T07:30:03.463Z,970.52
2022-10-15T07:31:03.548Z,970.63
2022-10-15T07:32:03.513Z,970.63
2022-10-15T07:33:03.595Z,970.69
2022-10-15T07:34:03.747Z,970.78
2022-10-15T07:35:03.835Z,970.60
2022-10-15T07:36:03.824Z,970.60
2022-10-15T07:37:03.820Z,970.83
2022-10-15T07:38:03.824Z,970.66
2022-10-15T07:39:04.021Z,970.69
2022-10-15T07:40:03.122Z,970.69
2022-10-15T07:41:08.327Z,970.46
2022-10-15T07:42:08.527Z,970.66
2022-10-15T07:43:08.416Z,970.68
2022-10-15T07:44:03.731Z,970.65
2022-10-15T07:45:08.632Z,970.80
2022-10-15T07:46:08.747Z,970.68
2022-10-15T07:47:03.689Z,970.74
2022-10-15T07:49:03.966Z,970.79
2022-10-15T07:50:03.790Z,970.59
2022-10-15T07:51:04.054Z,970.73
2022-10-15T07:52:03.950Z,970.73
2022-10-15T07:53:03.825Z,970.79
2022-10-15T07:54:03.997Z,970.79
2022-10-15T07:55:08.046Z,970.64
2022-10-15T07:56:03.029Z,970.73
2022-10-15T07:57:03.122Z,970.73
2022-10-15T07:58:03.230Z,970.78
2022-10-15T07:59:08.451Z,970.75
2022-10-15T08:00:03.506Z,970.69
2022-10-15T08:01:08.516Z,970.75
2022-10-15T08:02:08.698Z,970.58
2022-10-15T08:03:03.626Z,970.66
2022-10-15T08:04:08.951Z,970.60
2022-10-15T08:05:02.999Z,970.72
2022-10-15T08:06:03.161Z,970.57
2022-10-15T08:07:08.073Z,970.65
2022-10-15T08:08:03.484Z,970.68
2022-10-15T08:09:03.588Z,970.65
2022-10-15T08:10:03.779Z,970.74
2022-10-15T08:11:03.807Z,970.77
2022-10-15T08:12:03.782Z,970.76
2022-10-15T08:13:03.863Z,970.70
2022-10-15T08:14:04.005Z,970.79
2022-10-15T08:15:02.996Z,970.65
2022-10-15T08:16:03.065Z,970.76
2022-10-15T08:17:03.167Z,970.82
2022-10-15T08:18:03.308Z,970.82
2022-10-15T08:19:03.341Z,970.76
2022-10-15T08:20:03.412Z,970.93
2022-10-15T08:21:03.461Z,970.76
2022-10-15T08:22:03.479Z,970.90
2022-10-15T08:23:03.655Z,970.93
2022-10-15T08:24:04.048Z,970.99
2022-10-15T08:25:02.975Z,970.99
2022-10-15T08:26:03.070Z,970.99
2022-10-15T08:27:08.112Z,970.96
2022-10-15T08:28:03.312Z,970.90
2022-10-15T08:29:03.493Z,970.93
2022-10-15T08:30:03.536Z,970.93
2022-10-15T08:31:06.382Z,971.10
2022-10-15T08:32:03.749Z,971.05
2022-10-15T08:33:03.749Z,970.99
2022-10-15T08:34:03.907Z,971.19
2022-10-15T08:35:03.176Z,971.10
2022-10-15T08:36:03.134Z,970.99
2022-10-15T08:37:08.413Z,971.18
2022-10-15T08:38:03.281Z,971.10
2022-10-15T08:39:08.553Z,971.12
2022-10-15T08:40:03.422Z,971.15
2022-10-15T08:41:03.494Z,971.21
2022-10-15T08:42:03.719Z,971.20
2022-10-15T08:43:03.753Z,971.26
2022-10-15T08:44:08.952Z,971.32
2022-10-15T08:45:07.970Z,971.37
2022-10-15T08:46:03.387Z,971.17
2022-10-15T08:47:03.151Z,971.31
2022-10-15T08:48:03.123Z,971.31
2022-10-15T08:49:03.401Z,971.36
2022-10-15T08:50:03.484Z,971.42
2022-10-15T08:51:03.459Z,971.45
2022-10-15T08:52:03.496Z,971.33
2022-10-15T08:53:03.527Z,971.36
2022-10-15T08:54:08.780Z,971.33
2022-10-15T08:55:08.903Z,971.42
2022-10-15T08:56:03.859Z,971.33
2022-10-15T08:57:08.114Z,971.39
2022-10-15T08:58:08.283Z,971.48
2022-10-15T08:59:03.621Z,971.36
2022-10-15T09:00:03.920Z,971.36
2022-10-15T09:01:08.939Z,971.44
2022-10-15T09:02:07.965Z,971.50
2022-10-15T09:04:03.061Z,971.38
2022-10-15T09:05:03.238Z,971.35
2022-10-15T09:06:08.407Z,971.46
2022-10-15T09:07:03.377Z,971.37
2022-10-15T09:08:03.484Z,971.46
2022-10-15T09:09:03.614Z,971.51
2022-10-15T09:10:08.837Z,971.45
2022-10-15T09:11:03.793Z,971.53
2022-10-15T09:12:08.786Z,971.33
2022-10-15T09:13:02.923Z,971.47
2022-10-15T09:14:03.131Z,971.41
2022-10-15T09:15:08.157Z,971.52
2022-10-15T09:16:03.305Z,971.55
2022-10-15T09:17:08.401Z,971.69
2022-10-15T09:18:03.541Z,971.52
2022-10-15T09:19:08.598Z,971.72
2022-10-15T09:20:08.658Z,971.63
2022-10-15T09:21:03.717Z,971.63
2022-10-15T09:22:03.711Z,971.60
2022-10-15T09:23:02.963Z,971.54
2022-10-15T09:24:03.176Z,971.66
2022-10-15T09:25:03.190Z,971.74
2022-10-15T09:26:03.323Z,971.66
2022-10-15T09:27:03.400Z,971.68
2022-10-15T09:28:03.060Z,971.60
2022-10-15T09:29:03.221Z,971.65
2022-10-15T09:30:03.197Z,971.71
2022-10-15T09:31:03.316Z,971.71
2022-10-15T09:32:03.310Z,971.76
2022-10-15T09:33:03.620Z,971.65
2022-10-15T09:34:13.718Z,971.62
2022-10-15T09:35:03.783Z,971.59
2022-10-15T09:36:03.859Z,971.50
2022-10-15T09:37:02.939Z,971.50
2022-10-15T09:38:06.236Z,971.52
2022-10-15T09:39:03.282Z,971.61
2022-10-15T09:40:03.493Z,971.49
2022-10-15T09:41:03.742Z,971.57
2022-10-15T09:42:08.705Z,971.57
2022-10-15T09:43:03.665Z,971.66
2022-10-15T09:44:07.425Z,971.63
2022-10-15T09:46:03.070Z,971.62
2022-10-15T09:47:03.254Z,971.71
2022-10-15T09:48:08.349Z,971.65
2022-10-15T09:49:03.352Z,971.68
2022-10-15T09:50:03.541Z,971.71
2022-10-15T09:51:03.591Z,971.62
2022-10-15T09:52:03.660Z,971.87
2022-10-15T09:53:03.657Z,971.83
2022-10-15T09:54:04.027Z,971.99
2022-10-15T09:55:03.149Z,971.80
2022-10-15T09:56:03.147Z,971.80
2022-10-15T09:57:08.316Z,971.82
2022-10-15T09:58:03.305Z,971.79
2022-10-15T09:59:09.830Z,971.84
2022-10-15T10:00:03.375Z,971.76
2022-10-15T10:02:08.817Z,971.86
2022-10-15T10:03:03.690Z,971.86
2022-10-15T10:04:04.018Z,971.86
2022-10-15T10:05:08.880Z,971.81
2022-10-15T10:06:03.856Z,971.83
2022-10-15T10:07:03.870Z,971.91
2022-10-15T10:08:02.929Z,971.94
2022-10-15T10:09:02.950Z,971.88
2022-10-15T10:10:03.058Z,971.91
2022-10-15T10:11:03.046Z,971.97
2022-10-15T10:12:03.142Z,971.97
2022-10-15T10:13:03.115Z,971.91
2022-10-15T10:14:03.288Z,971.88
2022-10-15T10:15:03.198Z,971.94
2022-10-15T10:16:03.214Z,971.97
2022-10-15T10:17:13.501Z,971.97
2022-10-15T10:18:03.374Z,972.00
2022-10-15T10:19:08.752Z,972.08
2022-10-15T10:20:03.569Z,971.94
2022-10-15T10:21:03.593Z,972.00
2022-10-15T10:22:03.650Z,971.94
2022-10-15T10:23:08.723Z,971.88
2022-10-15T10:26:02.946Z,971.94
2022-10-15T10:28:07.951Z,972.02
2022-10-15T10:29:15.961Z,972.02
2022-10-15T10:30:03.148Z,972.23
2022-10-15T10:31:03.116Z,972.08
2022-10-15T10:32:08.313Z,972.02
2022-10-15T10:33:03.140Z,972.02
2022-10-15T10:34:08.317Z,972.14
2022-10-15T10:35:03.340Z,972.14
2022-10-15T10:37:03.519Z,972.11
2022-10-15T10:38:08.596Z,972.14
2022-10-15T10:39:03.783Z,972.32
2022-10-15T10:40:03.713Z,972.20
2022-10-15T10:41:03.768Z,972.09
2022-10-15T10:42:08.716Z,972.06
2022-10-15T10:43:03.740Z,972.15
2022-10-15T10:44:04.138Z,972.12
2022-10-15T10:45:03.969Z,972.06
2022-10-15T10:47:02.954Z,972.08
2022-10-15T10:48:02.942Z,972.29
2022-10-15T10:49:03.205Z,972.08
2022-10-15T10:50:03.260Z,972.26
2022-10-15T10:51:03.353Z,972.17
2022-10-15T10:52:03.327Z,972.20
2022-10-15T10:53:03.519Z,972.08
2022-10-15T10:54:03.656Z,972.11
2022-10-15T10:55:03.658Z,972.14
2022-10-15T10:56:03.742Z,972.11
2022-10-15T10:57:03.637Z,972.05
2022-10-15T10:58:03.722Z,972.00
2022-10-15T10:59:04.032Z,972.02
2022-10-15T11:00:02.965Z,972.23
2022-10-15T11:01:03.130Z,972.23
2022-10-15T11:02:03.154Z,972.17
2022-10-15T11:03:13.394Z,972.25
2022-10-15T11:04:03.653Z,972.19
2022-10-15T11:05:03.449Z,972.31
2022-10-15T11:06:03.443Z,972.16
2022-10-15T11:07:08.572Z,972.13
2022-10-15T11:08:03.477Z,972.22
2022-10-15T11:09:13.841Z,972.13
2022-10-15T11:10:03.176Z,972.10
2022-10-15T11:11:03.195Z,972.16
2022-10-15T11:12:03.267Z,972.22
2022-10-15T11:13:08.298Z,972.25
2022-10-15T11:14:08.404Z,972.25
2022-10-15T11:15:08.383Z,972.16
2022-10-15T11:16:03.335Z,972.24
2022-10-15T11:17:03.426Z,972.21
2022-10-15T11:18:03.384Z,972.21
2022-10-15T11:19:18.964Z,972.21
2022-10-15T11:20:37.806Z,972.18
2022-10-15T11:21:07.318Z,972.41
2022-10-15T11:22:03.434Z,972.30
2022-10-15T11:23:08.361Z,972.33
2022-10-15T11:24:03.526Z,972.18
2022-10-15T11:25:07.665Z,972.27
2022-10-15T11:26:03.667Z,972.30
2022-10-15T11:27:16.275Z,972.26
2022-10-15T11:28:03.749Z,972.23
2022-10-15T11:29:09.236Z,972.18
2022-10-15T11:30:03.078Z,972.38
2022-10-15T11:31:03.064Z,972.21
2022-10-15T11:32:16.678Z,972.32
2022-10-15T11:33:09.329Z,972.18
2022-10-15T11:34:03.464Z,972.15
2022-10-15T11:35:03.445Z,972.35
2022-10-15T11:36:03.627Z,972.41
2022-10-15T11:37:03.715Z,972.26
2022-10-15T11:38:03.819Z,972.43
2022-10-15T11:39:04.035Z,972.35
2022-10-15T11:40:02.991Z,972.20
2022-10-15T11:41:03.102Z,972.32
2022-10-15T11:42:08.345Z,972.40
2022-10-15T11:43:08.469Z,972.28
2022-10-15T11:44:03.438Z,972.28
2022-10-15T11:45:03.692Z,972.40
2022-10-15T11:46:08.692Z,972.34
2022-10-15T11:47:03.598Z,972.45
2022-10-15T11:48:03.673Z,972.53
2022-10-15T11:49:08.968Z,972.56
2022-10-15T11:50:03.707Z,972.40
2022-10-15T11:52:03.893Z,972.53
2022-10-15T11:54:03.244Z,972.42
2022-10-15T11:55:03.210Z,972.45
2022-10-15T11:56:03.226Z,972.45
2022-10-15T11:57:03.372Z,972.48
2022-10-15T11:58:03.329Z,972.56
2022-10-15T11:59:08.505Z,972.71
2022-10-15T12:00:03.637Z,972.46
2022-10-15T12:01:03.711Z,972.59
2022-10-15T12:02:08.875Z,972.56
2022-10-15T12:03:03.020Z,972.59
2022-10-15T12:04:03.185Z,972.56
2022-10-15T12:05:08.364Z,972.80
2022-10-15T12:06:03.251Z,972.65
2022-10-15T12:07:03.317Z,972.57
2022-10-15T12:08:08.474Z,972.57
2022-10-15T12:09:08.490Z,972.59
2022-10-15T12:10:08.396Z,972.62
2022-10-15T12:11:08.359Z,972.60
2022-10-15T12:12:04.912Z,972.54
2022-10-15T12:13:03.320Z,972.68
2022-10-15T12:14:03.400Z,972.60
2022-10-15T12:15:03.494Z,972.57
2022-10-15T12:16:08.424Z,972.46
2022-10-15T12:17:03.655Z,972.63
2022-10-15T12:18:03.568Z,972.57
2022-10-15T12:19:04.037Z,972.54
2022-10-15T12:20:08.855Z,972.66
2022-10-15T12:21:03.885Z,972.52
2022-10-15T12:22:03.839Z,972.44
2022-10-15T12:23:03.829Z,972.49
2022-10-15T12:24:04.100Z,972.54
2022-10-15T12:25:03.103Z,972.46
2022-10-15T12:26:08.079Z,972.57
2022-10-15T12:28:07.953Z,972.43
2022-10-15T12:29:03.695Z,972.37
2022-10-15T12:30:03.143Z,972.49
2022-10-15T12:31:03.248Z,972.40
2022-10-15T12:32:03.296Z,972.29
2022-10-15T12:33:03.308Z,972.46
2022-10-15T12:34:03.466Z,972.28
2022-10-15T12:35:03.612Z,972.43
2022-10-15T12:36:13.832Z,972.34
2022-10-15T12:37:03.794Z,972.28
2022-10-15T12:38:03.811Z,972.45
2022-10-15T12:39:21.559Z,972.43
2022-10-15T12:40:03.028Z,972.31
2022-10-15T12:41:08.878Z,972.37
2022-10-15T12:42:03.868Z,972.34
2022-10-15T12:43:03.873Z,972.40
2022-10-15T12:44:04.156Z,972.49
2022-10-15T12:45:03.414Z,972.34
2022-10-15T12:46:03.101Z,972.40
2022-10-15T12:47:03.232Z,972.49
2022-10-15T12:48:03.307Z,972.49
2022-10-15T12:49:03.592Z,972.34
2022-10-15T12:50:03.690Z,972.53
2022-10-15T12:51:03.760Z,972.49
2022-10-15T12:52:03.709Z,972.53
2022-10-15T12:53:03.782Z,972.34